createdAt,value
2022-08-05T00:00:53.820Z,5.97
2022-08-05T00:03:57.530Z,6.97
2022-08-05T00:07:00.856Z,6.50
2022-08-05T00:10:27.238Z,5.53
2022-08-05T00:13:39.037Z,5.63
2022-08-05T00:16:52.984Z,5.57
2022-08-05T00:20:02.239Z,4.97
2022-08-05T00:23:12.753Z,4.10
2022-08-05T00:26:17.025Z,4.17
2022-08-05T00:29:22.375Z,3.67
2022-08-05T00:32:25.988Z,3.60
2022-08-05T00:35:33.376Z,3.50
2022-08-05T00:38:36.827Z,3.10
2022-08-05T00:41:51.557Z,2.90
2022-08-05T00:44:59.756Z,3.03
2022-08-05T00:48:05.722Z,2.87
2022-08-05T00:51:51.774Z,2.47
2022-08-05T00:54:32.216Z,2.17
2022-08-05T00:57:38.219Z,2.67
2022-08-05T01:00:59.699Z,2.40
2022-08-05T01:04:11.782Z,2.50
2022-08-05T01:07:17.987Z,2.10
2022-08-05T01:10:25.962Z,2.47
2022-08-05T01:13:58.372Z,2.47
2022-08-05T01:17:07.421Z,2.10
2022-08-05T01:20:20.263Z,1.90
2022-08-05T01:23:37.229Z,2.00
2022-08-05T01:26:56.254Z,2.00
2022-08-05T01:30:04.662Z,1.90
2022-08-05T01:33:17.801Z,2.27
2022-08-05T01:36:28.303Z,1.80
2022-08-05T01:39:36.105Z,2.17
2022-08-05T01:42:52.686Z,2.10
2022-08-05T01:45:58.608Z,1.83
2022-08-05T01:49:23.439Z,1.80
2022-08-05T01:52:29.084Z,2.00
2022-08-05T01:55:36.398Z,2.10
2022-08-05T01:58:45.172Z,1.90
2022-08-05T02:01:54.724Z,1.77
2022-08-05T02:05:01.704Z,1.60
2022-08-05T02:08:07.095Z,2.00
2022-08-05T02:11:12.590Z,1.80
2022-08-05T02:14:21.841Z,2.00
2022-08-05T02:18:32.447Z,1.70
2022-08-05T02:20:58.792Z,1.87
2022-08-05T02:24:07.641Z,2.10
2022-08-05T02:27:12.835Z,1.67
2022-08-05T02:30:16.779Z,1.57
2022-08-05T02:33:24.456Z,1.50
2022-08-05T02:36:44.861Z,1.50
2022-08-05T02:39:51.520Z,1.80
2022-08-05T02:42:56.534Z,1.57
2022-08-05T02:46:01.115Z,1.70
2022-08-05T02:49:07.135Z,2.07
2022-08-05T02:52:29.354Z,2.50
2022-08-05T02:55:54.766Z,2.50
2022-08-05T02:58:59.464Z,2.63
2022-08-05T03:02:03.840Z,2.13
2022-08-05T03:05:10.928Z,2.37
2022-08-05T03:08:16.587Z,2.33
2022-08-05T03:11:55.510Z,3.07
2022-08-05T03:14:48.183Z,3.00
2022-08-05T03:17:54.150Z,3.13
2022-08-05T03:21:00.426Z,3.30
2022-08-05T03:24:04.095Z,2.67
2022-08-05T03:27:07.280Z,2.63
2022-08-05T03:30:12.016Z,2.43
2022-08-05T03:33:15.195Z,2.87
2022-08-05T03:36:30.357Z,2.83
2022-08-05T03:39:38.195Z,3.00
2022-08-05T03:42:56.971Z,2.60
2022-08-05T03:46:01.392Z,3.43
2022-08-05T03:49:04.858Z,3.13
2022-08-05T03:52:48.404Z,2.67
2022-08-05T03:56:05.950Z,3.27
2022-08-05T03:59:08.491Z,3.17
2022-08-05T04:02:14.971Z,2.80
2022-08-05T04:05:21.036Z,2.83
2022-08-05T04:08:36.273Z,2.80
2022-08-05T04:11:47.151Z,3.10
2022-08-05T04:14:54.487Z,3.20
2022-08-05T04:18:03.854Z,3.00
2022-08-05T04:21:11.294Z,3.10
2022-08-05T04:24:19.243Z,3.10
2022-08-05T04:27:41.496Z,2.80
2022-08-05T04:30:46.938Z,2.70
2022-08-05T04:34:17.662Z,2.70
2022-08-05T04:37:14.116Z,3.10
2022-08-05T04:40:19.599Z,2.70
2022-08-05T04:43:22.731Z,3.00
2022-08-05T04:46:29.091Z,2.80
2022-08-05T04:49:38.709Z,2.70
2022-08-05T04:52:55.104Z,2.50
2022-08-05T04:56:32.342Z,2.87
2022-08-05T04:59:40.628Z,3.07
2022-08-05T05:02:43.951Z,2.80
2022-08-05T05:06:39.692Z,3.33
2022-08-05T05:09:13.269Z,3.40
2022-08-05T05:12:18.767Z,3.13
2022-08-05T05:16:01.803Z,3.63
2022-08-05T05:19:08.952Z,3.10
2022-08-05T05:22:23.739Z,3.50
2022-08-05T05:25:32.641Z,3.53
2022-08-05T05:28:45.376Z,3.40
2022-08-05T05:31:48.428Z,3.30
2022-08-05T05:34:54.209Z,2.97
2022-08-05T05:38:02.010Z,3.40
2022-08-05T05:41:07.640Z,3.27
2022-08-05T05:44:36.045Z,3.40
2022-08-05T05:48:06.392Z,3.27
2022-08-05T05:50:59.022Z,3.00
2022-08-05T05:54:18.349Z,3.20
2022-08-05T05:57:22.789Z,3.40
2022-08-05T06:00:31.516Z,3.30
2022-08-05T06:03:53.635Z,3.27
2022-08-05T06:07:01.490Z,3.00
2022-08-05T06:10:10.005Z,2.77
2022-08-05T06:13:13.449Z,3.50
2022-08-05T06:16:29.201Z,3.57
2022-08-05T06:19:35.783Z,3.23
2022-08-05T06:22:40.465Z,3.70
2022-08-05T06:26:12.835Z,3.50
2022-08-05T06:29:25.377Z,3.97
2022-08-05T06:32:31.109Z,3.13
2022-08-05T06:36:07.913Z,3.40
2022-08-05T06:38:57.229Z,3.20
2022-08-05T06:42:04.196Z,3.00
2022-08-05T06:45:09.300Z,3.40
2022-08-05T06:48:47.446Z,3.00
2022-08-05T06:51:40.686Z,3.07
2022-08-05T06:54:43.967Z,2.80
2022-08-05T06:58:02.583Z,2.63
2022-08-05T07:01:14.980Z,3.07
2022-08-05T07:04:25.521Z,2.70
2022-08-05T07:07:42.981Z,3.00
2022-08-05T07:10:53.176Z,2.63
2022-08-05T07:14:15.460Z,2.50
2022-08-05T07:18:02.209Z,2.10
2022-08-05T07:20:43.220Z,2.33
2022-08-05T07:23:49.777Z,2.50
2022-08-05T07:26:53.594Z,2.57
2022-08-05T07:30:27.354Z,2.60
2022-08-05T07:33:36.802Z,2.20
2022-08-05T07:36:41.764Z,1.90
2022-08-05T07:40:04.788Z,2.27
2022-08-05T07:43:14.577Z,2.97
2022-08-05T07:46:25.131Z,2.57
2022-08-05T07:49:28.801Z,2.20
2022-08-05T07:52:33.235Z,2.10
2022-08-05T07:56:04.859Z,2.23
2022-08-05T07:58:59.605Z,2.20
2022-08-05T08:02:03.143Z,2.23
2022-08-05T08:05:07.467Z,2.57
2022-08-05T08:08:15.721Z,2.40
2022-08-05T08:11:18.760Z,2.30
2022-08-05T08:14:30.800Z,2.50
2022-08-05T08:17:34.448Z,2.30
2022-08-05T08:21:00.495Z,2.63
2022-08-05T08:24:05.320Z,2.20
2022-08-05T08:27:09.961Z,2.50
2022-08-05T08:30:33.971Z,2.77
2022-08-05T08:33:41.108Z,2.23
2022-08-05T08:36:47.729Z,3.00
2022-08-05T08:39:59.165Z,2.53
2022-08-05T08:45:16.364Z,2.73
2022-08-05T08:46:30.428Z,2.60
2022-08-05T08:50:22.299Z,2.27
2022-08-05T08:53:08.021Z,1.90
2022-08-05T08:56:17.196Z,2.13
2022-08-05T08:59:21.775Z,1.97
2022-08-05T09:02:30.992Z,1.97
2022-08-05T09:05:38.232Z,1.90
2022-08-05T09:08:42.215Z,2.10
2022-08-05T09:11:52.631Z,1.70
2022-08-05T09:15:05.830Z,2.27
2022-08-05T09:18:13.402Z,2.00
2022-08-05T09:21:21.264Z,2.00
2022-08-05T09:24:39.921Z,1.70
2022-08-05T09:28:04.066Z,1.93
2022-08-05T09:31:23.483Z,1.90
2022-08-05T09:34:50.840Z,2.10
2022-08-05T09:38:11.927Z,2.40
2022-08-05T09:41:18.387Z,1.90
2022-08-05T09:44:39.504Z,2.00
2022-08-05T09:47:55.624Z,2.10
2022-08-05T09:51:01.621Z,1.80
2022-08-05T09:54:08.296Z,2.03
2022-08-05T09:57:29.065Z,2.20
2022-08-05T10:00:39.747Z,2.10
2022-08-05T10:03:58.936Z,2.07
2022-08-05T10:07:19.579Z,2.00
2022-08-05T10:10:28.250Z,2.00
2022-08-05T10:13:47.699Z,1.90
2022-08-05T10:16:56.164Z,2.07
2022-08-05T10:20:04.163Z,2.30
2022-08-05T10:23:22.136Z,1.83
2022-08-05T10:26:51.328Z,1.83
2022-08-05T10:30:06.347Z,1.93
2022-08-05T10:33:20.949Z,1.70
2022-08-05T10:36:26.230Z,1.60
2022-08-05T10:40:03.911Z,1.40
2022-08-05T10:43:02.288Z,1.27
2022-08-05T10:46:09.345Z,1.63
2022-08-05T10:49:16.772Z,1.83
2022-08-05T10:52:38.863Z,2.37
2022-08-05T10:56:07.958Z,1.87
2022-08-05T11:00:04.123Z,2.17
2022-08-05T11:03:25.979Z,1.70
2022-08-05T11:06:31.614Z,1.50
2022-08-05T11:09:46.319Z,1.90
2022-08-05T11:12:54.449Z,1.40
2022-08-05T11:16:22.380Z,1.13
2022-08-05T11:20:10.691Z,1.80
2022-08-05T11:24:05.689Z,1.70
2022-08-05T11:27:51.248Z,2.00
2022-08-05T11:31:56.519Z,1.63
2022-08-05T11:34:58.349Z,1.10
2022-08-05T11:38:31.029Z,1.10
2022-08-05T11:41:56.377Z,1.00
2022-08-05T11:44:53.840Z,1.00
2022-08-05T11:47:58.772Z,1.30
2022-08-05T11:51:03.032Z,1.40
2022-08-05T11:54:06.970Z,1.00
2022-08-05T11:57:25.381Z,1.30
2022-08-05T12:00:38.028Z,1.13
2022-08-05T12:03:44.368Z,1.37
2022-08-05T12:07:01.263Z,1.60
2022-08-05T12:10:09.634Z,1.63
2022-08-05T12:13:27.736Z,2.07
2022-08-05T12:16:45.583Z,1.70
2022-08-05T12:20:27.811Z,1.90
2022-08-05T12:23:14.488Z,1.70
2022-08-05T12:26:17.526Z,1.90
2022-08-05T12:29:23.946Z,2.33
2022-08-05T12:32:27.053Z,2.20
2022-08-05T12:35:37.242Z,2.10
2022-08-05T12:38:43.447Z,1.97
2022-08-05T12:41:46.779Z,2.13
2022-08-05T12:44:53.002Z,4.00
2022-08-05T12:48:17.586Z,2.00
2022-08-05T12:52:10.538Z,1.90
2022-08-05T12:54:45.144Z,1.67
2022-08-05T12:58:38.929Z,1.70
2022-08-05T13:02:01.518Z,1.87
2022-08-05T13:04:41.884Z,2.17
2022-08-05T13:08:01.022Z,1.43
2022-08-05T13:11:04.561Z,1.07
2022-08-05T13:14:19.420Z,0.90
2022-08-05T13:17:32.031Z,0.93
2022-08-05T13:20:45.414Z,0.80
2022-08-05T13:23:50.666Z,1.03
2022-08-05T13:26:55.226Z,0.90
2022-08-05T13:30:33.082Z,0.90
2022-08-05T13:34:25.095Z,0.93
2022-08-05T13:36:46.331Z,1.40
2022-08-05T13:40:16.190Z,1.07
2022-08-05T13:43:22.042Z,0.93
2022-08-05T13:46:50.678Z,9.70
2022-08-05T13:49:50.656Z,3.43
2022-08-05T13:52:53.859Z,1.13
2022-08-05T13:56:01.784Z,2.10
2022-08-05T13:59:06.314Z,1.33
2022-08-05T14:02:26.605Z,1.37
2022-08-05T14:06:04.647Z,1.30
2022-08-05T14:08:57.584Z,1.10
2022-08-05T14:12:17.781Z,1.10
2022-08-05T14:16:05.386Z,1.53
2022-08-05T14:18:44.480Z,1.30
2022-08-05T14:22:10.352Z,1.30
2022-08-05T14:25:21.568Z,1.27
2022-08-05T14:28:26.834Z,1.50
2022-08-05T14:31:54.550Z,1.30
2022-08-05T14:34:53.340Z,1.03
2022-08-05T14:37:59.086Z,1.10
2022-08-05T14:41:06.451Z,1.07
2022-08-05T14:44:20.449Z,1.37
2022-08-05T14:48:03.805Z,1.23
2022-08-05T14:50:48.126Z,1.50
2022-08-05T14:54:06.919Z,1.30
2022-08-05T14:57:16.945Z,1.13
2022-08-05T15:00:21.412Z,1.50
2022-08-05T15:03:38.832Z,1.20
2022-08-05T15:06:42.406Z,1.60
2022-08-05T15:09:54.538Z,1.20
2022-08-05T15:13:04.114Z,1.70
2022-08-05T15:16:08.057Z,1.40
2022-08-05T15:19:23.442Z,1.20
2022-08-05T15:22:28.304Z,1.20
2022-08-05T15:25:51.389Z,1.53
2022-08-05T15:28:56.139Z,1.77
2022-08-05T15:32:03.084Z,1.63
2022-08-05T15:35:10.606Z,1.37
2022-08-05T15:38:34.261Z,2.30
2022-08-05T15:41:55.246Z,1.90
2022-08-05T15:45:00.128Z,1.80
2022-08-05T15:48:03.771Z,1.57
2022-08-05T15:51:07.006Z,1.40
2022-08-05T15:54:10.275Z,1.30
2022-08-05T15:57:19.812Z,1.03
2022-08-05T16:00:32.507Z,1.03
2022-08-05T16:03:48.219Z,1.27
2022-08-05T16:06:51.830Z,1.07
2022-08-05T16:09:55.259Z,0.90
2022-08-05T16:12:59.573Z,1.07
2022-08-05T16:16:03.307Z,1.10
2022-08-05T16:19:06.709Z,0.83
2022-08-05T16:22:13.279Z,0.90
2022-08-05T16:25:16.598Z,0.97
2022-08-05T16:28:20.938Z,1.00
2022-08-05T16:31:27.275Z,0.80
2022-08-05T16:34:50.714Z,0.50
2022-08-05T16:38:11.986Z,1.03
2022-08-05T16:42:12.541Z,0.70
2022-08-05T16:44:41.539Z,0.60
2022-08-05T16:47:54.425Z,0.67
2022-08-05T16:51:00.456Z,0.70
2022-08-05T16:54:16.136Z,0.70
2022-08-05T16:57:50.461Z,0.60
2022-08-05T17:00:49.694Z,0.70
2022-08-05T17:03:53.061Z,0.70
2022-08-05T17:07:00.437Z,0.80
2022-08-05T17:10:04.567Z,0.43
2022-08-05T17:13:16.691Z,0.70
2022-08-05T17:16:33.668Z,1.00
2022-08-05T17:19:39.329Z,0.70
2022-08-05T17:22:44.817Z,0.60
2022-08-05T17:25:48.096Z,0.63
2022-08-05T17:28:51.818Z,0.80
2022-08-05T17:31:58.641Z,0.90
2022-08-05T17:35:02.330Z,0.50
2022-08-05T17:38:08.448Z,0.60
2022-08-05T17:42:18.316Z,0.60
2022-08-05T17:44:34.563Z,0.70
2022-08-05T17:47:39.810Z,0.60
2022-08-05T17:50:42.873Z,0.60
2022-08-05T17:53:45.897Z,0.77
2022-08-05T17:56:57.450Z,0.70
2022-08-05T18:00:05.220Z,0.70
2022-08-05T18:03:10.182Z,0.70
2022-08-05T18:06:15.522Z,0.67
2022-08-05T18:09:18.671Z,0.60
2022-08-05T18:12:24.507Z,0.50
2022-08-05T18:15:28.077Z,0.60
2022-08-05T18:18:39.921Z,0.40
2022-08-05T18:22:08.447Z,0.63
2022-08-05T18:25:07.458Z,0.70
2022-08-05T18:28:12.301Z,0.60
2022-08-05T18:31:19.954Z,0.40
2022-08-05T18:34:24.336Z,0.50
2022-08-05T18:37:43.786Z,0.53
2022-08-05T18:41:55.477Z,0.40
2022-08-05T18:44:10.788Z,0.50
2022-08-05T18:47:15.771Z,0.40
2022-08-05T18:50:45.448Z,0.53
2022-08-05T18:53:50.784Z,0.50
2022-08-05T18:56:53.811Z,0.63
2022-08-05T19:00:03.580Z,0.60
2022-08-05T19:03:10.706Z,0.40
2022-08-05T19:06:21.885Z,0.67
2022-08-05T19:09:25.521Z,0.60
2022-08-05T19:12:29.146Z,0.70
2022-08-05T19:15:59.434Z,0.50
2022-08-05T19:18:57.042Z,0.50
2022-08-05T19:22:01.562Z,0.60
2022-08-05T19:25:05.059Z,0.57
2022-08-05T19:28:08.104Z,0.50
2022-08-05T19:31:13.205Z,0.57
2022-08-05T19:34:18.707Z,0.60
2022-08-05T19:37:34.926Z,0.47
2022-08-05T19:40:47.279Z,0.63
2022-08-05T19:44:05.989Z,0.40
2022-08-05T19:47:15.317Z,0.80
2022-08-05T19:50:20.238Z,0.53
2022-08-05T19:54:03.649Z,0.60
2022-08-05T19:56:48.241Z,0.70
2022-08-05T20:00:01.602Z,0.50
2022-08-05T20:03:08.998Z,0.50
2022-08-05T20:06:16.038Z,0.60
2022-08-05T20:09:54.131Z,0.40
2022-08-05T20:12:56.743Z,0.60
2022-08-05T20:15:59.846Z,0.50
2022-08-05T20:19:03.146Z,0.70
2022-08-05T20:22:06.451Z,0.67
2022-08-05T20:25:14.099Z,0.70
2022-08-05T20:28:17.117Z,0.60
2022-08-05T20:31:28.324Z,0.90
2022-08-05T20:34:40.763Z,0.80
2022-08-05T20:38:07.923Z,1.00
2022-08-05T20:41:09.018Z,0.67
2022-08-05T20:44:18.995Z,0.80
2022-08-05T20:47:32.704Z,0.80
2022-08-05T20:50:40.884Z,0.60
2022-08-05T20:53:56.772Z,0.80
2022-08-05T20:57:01.571Z,1.00
2022-08-05T21:00:20.553Z,0.90
2022-08-05T21:03:34.330Z,0.73
2022-08-05T21:06:38.339Z,0.70
2022-08-05T21:09:53.847Z,0.63
2022-08-05T21:13:03.049Z,1.10
2022-08-05T21:16:14.363Z,0.43
2022-08-05T21:19:17.388Z,0.63
2022-08-05T21:22:24.020Z,0.80
2022-08-05T21:25:34.041Z,0.80
2022-08-05T21:28:40.165Z,0.70
2022-08-05T21:31:51.706Z,0.83
2022-08-05T21:34:55.820Z,1.07
2022-08-05T21:38:12.176Z,1.00
2022-08-05T21:41:15.631Z,1.00
2022-08-05T21:44:26.804Z,0.60
2022-08-05T21:47:55.229Z,0.90
2022-08-05T21:50:54.451Z,1.00
2022-08-05T21:54:03.597Z,0.90
2022-08-05T21:57:30.900Z,0.80
2022-08-05T22:00:31.575Z,0.90
2022-08-05T22:03:52.018Z,0.70
2022-08-05T22:06:57.010Z,0.80
2022-08-05T22:10:00.432Z,1.00
2022-08-05T22:13:08.704Z,0.80
2022-08-05T22:16:41.797Z,0.90
2022-08-05T22:20:00.390Z,0.90
2022-08-05T22:24:01.303Z,0.80
2022-08-05T22:27:10.950Z,0.90
2022-08-05T22:30:19.771Z,0.90
2022-08-05T22:33:55.732Z,0.70
2022-08-05T22:36:48.174Z,0.90
2022-08-05T22:39:51.469Z,0.80
2022-08-05T22:42:58.465Z,0.67
2022-08-05T22:46:04.643Z,0.73
2022-08-05T22:50:18.244Z,0.90
2022-08-05T22:52:37.531Z,0.80
2022-08-05T22:55:57.023Z,0.50
2022-08-05T22:59:03.991Z,1.00
2022-08-05T23:02:28.972Z,0.90
2022-08-05T23:05:36.190Z,0.80
2022-08-05T23:08:39.349Z,0.50
2022-08-05T23:11:46.685Z,0.70
2022-08-05T23:14:53.304Z,0.90
2022-08-05T23:18:00.510Z,0.80
2022-08-05T23:21:07.371Z,0.80
2022-08-05T23:24:13.362Z,0.67
2022-08-05T23:27:17.632Z,0.87
2022-08-05T23:30:27.067Z,0.80
2022-08-05T23:34:05.355Z,0.70
2022-08-05T23:36:56.625Z,0.70
2022-08-05T23:40:07.499Z,0.60
2022-08-05T23:43:25.685Z,0.80
2022-08-05T23:46:37.390Z,0.70
2022-08-05T23:49:40.581Z,0.60
2022-08-05T23:52:50.168Z,0.60
2022-08-05T23:55:53.834Z,0.60
2022-08-05T23:58:58.466Z,1.07
